KJQF

Concord Regional Airport

Concord, North Carolina, USA
METAR KJQF 211452Z 35010KT 10SM CLR M04/M18 A3042
Observed Flight Rules
Jan-21 @ 14:52 UTC (an hour ago) Visual Flight Rules
Wind Visibility Clouds
350° at 10 knots 10 miles
  • Clear skies
Temperatures Readings
Current -4°C / 25°F
Dewpoint -18°C / -0°F
Humidity 33%
Altimeter 30.42" Hg
Pressure 1030.11 hPa
Elevation 210
METAR KJQF 211452Z 35010KT 10SM CLR M04/M18 A3042
Observed Flight Rules
Jan-21 @ 14:52 UTC
(an hour ago)
VFR
Wind Visibility
350° at 10 knots 10 miles
Clouds
  • Clear skies
Temperature Dewpoint
-4°C / 25°F -18°C / -0°F
Humidity Altimeter Pressure
33% 30.42" Hg 1030.11 hPa